createdAt,value
2018-06-25T00:00:35.255Z,12.30
2018-06-25T00:03:04.739Z,12.30
2018-06-25T00:05:34.198Z,12.30
2018-06-25T00:08:04.706Z,12.20
2018-06-25T00:10:34.292Z,12.20
2018-06-25T00:13:03.731Z,12.20
2018-06-25T00:15:33.255Z,12.10
2018-06-25T00:18:02.687Z,12.10
2018-06-25T00:20:32.261Z,12.10
2018-06-25T00:23:01.863Z,12.10
2018-06-25T00:25:31.478Z,12.00
2018-06-25T00:28:01.083Z,11.90
2018-06-25T00:30:30.495Z,11.90
2018-06-25T00:32:59.887Z,11.80
2018-06-25T00:39:36.878Z,11.80
2018-06-25T00:42:06.319Z,11.70
2018-06-25T00:48:40.714Z,11.50
2018-06-25T00:51:10.239Z,11.50
2018-06-25T00:53:39.669Z,11.30
2018-06-25T00:56:09.082Z,11.30
2018-06-25T00:58:49.913Z,11.20
2018-06-25T01:01:19.348Z,11.20
2018-06-25T01:06:17.748Z,11.20
2018-06-25T01:08:47.219Z,11.10
2018-06-25T01:11:19.131Z,11.20
2018-06-25T01:13:48.675Z,11.10
2018-06-25T01:16:18.161Z,11.10
2018-06-25T01:18:47.775Z,11.00
2018-06-25T01:21:17.158Z,10.90
2018-06-25T01:23:46.610Z,10.90
2018-06-25T01:26:16.090Z,10.90
2018-06-25T01:28:45.711Z,10.90
2018-06-25T01:31:15.078Z,10.90
2018-06-25T01:33:44.571Z,10.80
2018-06-25T01:36:14.162Z,10.80
2018-06-25T01:38:43.759Z,10.90
2018-06-25T01:41:13.323Z,10.80
2018-06-25T01:43:42.728Z,10.80
2018-06-25T01:46:12.266Z,10.80
2018-06-25T01:48:41.802Z,10.80
2018-06-25T01:51:11.351Z,10.80
2018-06-25T02:01:42.142Z,10.80
2018-06-25T02:04:11.560Z,10.80
2018-06-25T02:06:41.050Z,10.60
2018-06-25T02:09:11.935Z,10.50
2018-06-25T02:11:41.561Z,10.50
2018-06-25T02:16:40.045Z,10.50
2018-06-25T02:19:09.603Z,10.50
2018-06-25T02:21:39.174Z,10.50
2018-06-25T02:24:09.545Z,10.50
2018-06-25T02:26:39.110Z,10.50
2018-06-25T02:29:08.681Z,10.50
2018-06-25T02:31:38.261Z,10.50
2018-06-25T02:34:07.840Z,10.50
2018-06-25T02:36:37.440Z,10.50
2018-06-25T02:41:37.322Z,10.50
2018-06-25T02:44:07.511Z,10.50
2018-06-25T02:46:37.442Z,10.50
2018-06-25T02:49:06.940Z,10.40
2018-06-25T02:51:36.365Z,10.40
2018-06-25T02:54:05.863Z,10.40
2018-06-25T02:56:35.330Z,10.40
2018-06-25T02:59:04.808Z,10.40
2018-06-25T03:01:34.412Z,10.40
2018-06-25T03:04:03.924Z,10.40
2018-06-25T03:06:33.489Z,10.40
2018-06-25T03:09:02.920Z,10.30
2018-06-25T03:11:32.429Z,10.30
2018-06-25T03:14:02.023Z,10.30
2018-06-25T03:16:31.524Z,10.30
2018-06-25T03:19:00.949Z,10.40
2018-06-25T03:21:30.363Z,10.40
2018-06-25T03:23:59.841Z,10.40
2018-06-25T03:26:29.244Z,10.40
2018-06-25T03:28:58.697Z,10.40
2018-06-25T03:31:28.178Z,10.50
2018-06-25T03:33:57.704Z,10.50
2018-06-25T03:36:27.184Z,10.50
2018-06-25T03:38:56.791Z,10.60
2018-06-25T03:41:26.380Z,10.60
2018-06-25T03:46:25.656Z,10.70
2018-06-25T03:48:55.201Z,10.80
2018-06-25T03:51:24.777Z,10.90
2018-06-25T03:53:54.267Z,10.90
2018-06-25T03:56:24.503Z,11.00
2018-06-25T03:58:54.024Z,11.10
2018-06-25T04:01:23.432Z,11.20
2018-06-25T04:03:52.843Z,11.30
2018-06-25T04:06:22.247Z,11.40
2018-06-25T04:08:51.676Z,11.50
2018-06-25T04:11:21.100Z,11.50
2018-06-25T04:13:51.624Z,11.60
2018-06-25T04:16:21.087Z,11.70
2018-06-25T04:19:05.654Z,11.80
2018-06-25T04:21:36.606Z,11.90
2018-06-25T04:24:06.202Z,12.10
2018-06-25T04:26:36.295Z,12.30
2018-06-25T04:29:06.469Z,12.40
2018-06-25T04:31:35.989Z,12.60
2018-06-25T04:34:05.434Z,12.70
2018-06-25T04:36:35.044Z,12.90
2018-06-25T04:39:07.743Z,13.00
2018-06-25T04:41:37.079Z,13.20
2018-06-25T04:44:06.791Z,13.30
2018-06-25T04:46:36.708Z,13.40
2018-06-25T04:49:06.335Z,13.60
2018-06-25T04:51:35.821Z,13.70
2018-06-25T04:54:05.431Z,13.90
2018-06-25T04:56:35.051Z,14.00
2018-06-25T04:59:04.619Z,14.10
2018-06-25T05:01:35.380Z,14.30
2018-06-25T05:04:04.834Z,14.40
2018-06-25T05:06:34.239Z,14.50
2018-06-25T05:09:03.835Z,14.70
2018-06-25T05:11:33.395Z,14.80
2018-06-25T05:14:02.884Z,15.00
2018-06-25T05:16:32.278Z,15.10
2018-06-25T05:19:01.660Z,15.20
2018-06-25T05:21:31.110Z,15.40
2018-06-25T05:24:00.459Z,15.50
2018-06-25T05:32:41.511Z,15.80
2018-06-25T05:35:11.039Z,15.90
2018-06-25T05:37:40.399Z,16.20
2018-06-25T05:40:11.599Z,16.30
2018-06-25T05:42:41.166Z,16.40
2018-06-25T05:45:10.554Z,16.50
2018-06-25T05:47:40.036Z,16.70
2018-06-25T05:50:09.523Z,16.80
2018-06-25T05:52:38.956Z,17.00
2018-06-25T05:55:09.638Z,17.20
2018-06-25T05:57:39.015Z,17.30
2018-06-25T06:00:08.619Z,17.50
2018-06-25T06:02:38.212Z,17.60
2018-06-25T06:05:07.799Z,17.80
2018-06-25T06:07:38.568Z,17.90
2018-06-25T06:10:08.050Z,18.10
2018-06-25T06:12:37.488Z,18.20
2018-06-25T06:15:07.059Z,18.40
2018-06-25T06:17:36.455Z,18.50
2018-06-25T06:20:06.044Z,18.70
2018-06-25T06:22:35.435Z,18.80
2018-06-25T06:25:04.860Z,19.00
2018-06-25T06:27:34.198Z,19.10
2018-06-25T06:30:03.738Z,19.30
2018-06-25T06:32:33.130Z,19.50
2018-06-25T06:35:03.667Z,19.60
2018-06-25T06:37:33.105Z,19.80
2018-06-25T06:40:02.662Z,20.00
2018-06-25T06:42:32.175Z,20.10
2018-06-25T06:45:01.596Z,20.40
2018-06-25T06:47:31.063Z,20.50
2018-06-25T06:50:00.695Z,20.70
2018-06-25T06:52:30.103Z,21.00
2018-06-25T06:54:59.538Z,21.10
2018-06-25T06:57:28.968Z,21.30
2018-06-25T06:59:58.364Z,21.60
2018-06-25T07:02:29.599Z,21.90
2018-06-25T07:04:59.119Z,22.30
2018-06-25T07:07:28.677Z,22.90
2018-06-25T07:09:58.054Z,23.50
2018-06-25T07:12:27.510Z,24.10
2018-06-25T07:14:57.039Z,24.80
2018-06-25T07:17:26.614Z,25.40
2018-06-25T07:19:56.166Z,25.90
2018-06-25T07:22:25.608Z,26.50
2018-06-25T07:24:56.035Z,27.00
2018-06-25T07:27:25.477Z,27.50
2018-06-25T07:29:55.575Z,27.90
2018-06-25T07:32:25.084Z,28.30
2018-06-25T07:34:54.635Z,28.70
2018-06-25T07:37:24.239Z,29.00
2018-06-25T07:39:53.755Z,29.30
2018-06-25T07:42:23.241Z,29.60
2018-06-25T07:47:21.177Z,29.90
2018-06-25T07:49:50.579Z,30.50
2018-06-25T07:52:21.410Z,30.70
2018-06-25T07:54:50.869Z,31.00
2018-06-25T07:57:21.538Z,31.10
2018-06-25T07:59:50.971Z,31.20
2018-06-25T08:02:20.522Z,31.30
2018-06-25T08:04:50.101Z,31.30
2018-06-25T08:07:20.504Z,31.30
2018-06-25T08:09:50.184Z,31.10
2018-06-25T08:12:20.594Z,31.00
2018-06-25T08:14:50.079Z,30.80
2018-06-25T08:17:20.509Z,30.60
2018-06-25T08:19:49.971Z,30.40
2018-06-25T08:24:49.275Z,29.90
2018-06-25T08:27:18.795Z,29.70
2018-06-25T08:29:48.256Z,29.50
2018-06-25T08:32:17.743Z,29.20
2018-06-25T08:34:47.203Z,29.00
2018-06-25T08:37:16.820Z,28.80
2018-06-25T08:39:46.303Z,28.80
2018-06-25T08:42:15.746Z,28.60
2018-06-25T08:44:45.174Z,28.50
2018-06-25T08:47:14.689Z,28.40
2018-06-25T08:49:44.126Z,28.30
2018-06-25T08:52:14.470Z,28.20
2018-06-25T08:54:43.854Z,28.10
2018-06-25T08:57:13.356Z,28.10
2018-06-25T08:59:42.796Z,28.10
2018-06-25T09:02:12.391Z,28.10
2018-06-25T09:04:41.872Z,28.00
2018-06-25T09:07:11.555Z,28.00
2018-06-25T09:09:41.064Z,27.90
2018-06-25T09:12:10.620Z,27.80
2018-06-25T09:14:40.198Z,27.60
2018-06-25T09:17:09.825Z,27.60
2018-06-25T09:19:39.250Z,27.50
2018-06-25T09:22:08.765Z,27.40
2018-06-25T09:24:38.443Z,27.40
2018-06-25T09:27:08.042Z,27.30
2018-06-25T09:29:37.703Z,27.20
2018-06-25T09:32:08.808Z,27.20
2018-06-25T09:34:43.735Z,27.30
2018-06-25T09:37:13.163Z,27.30
2018-06-25T09:39:42.575Z,27.40
2018-06-25T09:42:12.179Z,27.40
2018-06-25T09:44:41.694Z,27.40
2018-06-25T09:47:11.580Z,27.50
2018-06-25T09:49:41.043Z,27.50
2018-06-25T09:52:10.991Z,27.50
2018-06-25T09:54:40.413Z,27.50
2018-06-25T09:57:09.895Z,27.50
2018-06-25T09:59:39.325Z,27.40
2018-06-25T10:02:08.706Z,27.50
2018-06-25T10:04:38.260Z,27.50
2018-06-25T10:07:07.842Z,27.40
2018-06-25T10:09:37.364Z,27.50
2018-06-25T10:12:06.915Z,27.40
2018-06-25T10:14:36.539Z,27.40
2018-06-25T10:17:06.539Z,27.40
2018-06-25T10:19:36.124Z,27.40
2018-06-25T10:22:05.665Z,27.40
2018-06-25T10:24:35.135Z,27.40
2018-06-25T10:27:04.703Z,27.30
2018-06-25T10:29:34.199Z,27.30
2018-06-25T10:32:03.870Z,27.10
2018-06-25T10:34:33.492Z,27.10
2018-06-25T10:37:03.003Z,27.00
2018-06-25T10:39:32.603Z,27.00
2018-06-25T10:42:02.523Z,27.00
2018-06-25T10:44:32.237Z,26.90
2018-06-25T10:47:01.642Z,26.80
2018-06-25T10:49:31.147Z,26.80
2018-06-25T10:52:00.518Z,26.70
2018-06-25T10:54:29.874Z,26.70
2018-06-25T10:56:59.324Z,26.60
2018-06-25T10:59:28.802Z,26.60
2018-06-25T11:01:58.278Z,26.50
2018-06-25T11:04:27.915Z,26.40
2018-06-25T11:06:57.515Z,26.30
2018-06-25T11:09:27.034Z,26.30
2018-06-25T11:11:56.387Z,26.30
2018-06-25T11:14:25.824Z,26.30
2018-06-25T11:16:55.271Z,26.20
2018-06-25T11:19:25.474Z,26.20
2018-06-25T11:21:54.953Z,26.30
2018-06-25T11:24:24.400Z,26.30
2018-06-25T11:27:00.739Z,26.40
2018-06-25T11:29:31.596Z,26.50
2018-06-25T11:32:01.020Z,26.60
2018-06-25T11:34:30.657Z,26.70
2018-06-25T11:37:00.256Z,26.70
2018-06-25T11:39:29.862Z,26.80
2018-06-25T11:41:59.375Z,26.90
2018-06-25T11:44:28.783Z,27.00
2018-06-25T11:46:58.379Z,27.10
2018-06-25T11:49:27.807Z,27.20
2018-06-25T11:51:57.256Z,27.30
2018-06-25T11:54:26.932Z,27.30
2018-06-25T11:56:56.716Z,27.30
2018-06-25T11:59:26.202Z,27.40
2018-06-25T12:01:55.770Z,27.40
2018-06-25T12:04:25.268Z,27.40
2018-06-25T12:06:54.891Z,27.50
2018-06-25T12:09:24.975Z,27.50
2018-06-25T12:11:54.548Z,27.50
2018-06-25T12:14:23.923Z,27.60
2018-06-25T12:16:53.296Z,27.70
2018-06-25T12:19:22.728Z,27.60
2018-06-25T12:21:52.158Z,27.50
2018-06-25T12:24:21.514Z,27.50
2018-06-25T12:29:20.779Z,27.50
2018-06-25T12:31:50.298Z,27.50
2018-06-25T12:34:19.784Z,27.50
2018-06-25T12:36:49.326Z,27.60
2018-06-25T12:39:18.740Z,27.50
2018-06-25T12:41:48.258Z,27.50
2018-06-25T12:44:17.850Z,27.30
2018-06-25T12:46:47.350Z,27.30
2018-06-25T12:49:16.786Z,27.40
2018-06-25T12:51:46.197Z,27.40
2018-06-25T12:54:15.546Z,27.40
2018-06-25T12:56:44.974Z,27.40
2018-06-25T12:59:14.343Z,27.40
2018-06-25T13:01:43.890Z,27.30
2018-06-25T13:04:13.423Z,27.30
2018-06-25T13:06:42.914Z,27.20
2018-06-25T13:09:13.332Z,27.10
2018-06-25T13:11:42.843Z,27.00
2018-06-25T13:14:12.435Z,26.90
2018-06-25T13:19:10.778Z,26.80
2018-06-25T13:21:40.299Z,26.80
2018-06-25T13:24:09.715Z,26.70
2018-06-25T13:26:39.077Z,26.70
2018-06-25T13:29:08.530Z,26.70
2018-06-25T13:31:37.987Z,26.70
2018-06-25T13:34:07.459Z,26.60
2018-06-25T13:36:36.922Z,26.60
2018-06-25T13:39:08.008Z,26.60
2018-06-25T13:41:37.538Z,26.60
2018-06-25T13:44:07.148Z,26.50
2018-06-25T13:46:36.618Z,26.60
2018-06-25T13:49:06.038Z,26.60
2018-06-25T13:54:04.630Z,26.60
2018-06-25T13:56:34.017Z,26.70
2018-06-25T13:59:03.587Z,26.80
2018-06-25T14:01:33.002Z,26.90
2018-06-25T14:04:02.346Z,26.90
2018-06-25T14:06:31.766Z,26.90
2018-06-25T14:09:01.299Z,26.90
2018-06-25T14:11:30.770Z,26.90
2018-06-25T14:14:01.427Z,26.90
2018-06-25T14:16:31.030Z,26.90
2018-06-25T14:19:00.667Z,27.00
2018-06-25T14:21:30.182Z,27.00
2018-06-25T14:24:05.028Z,27.00
2018-06-25T14:29:14.415Z,27.00
2018-06-25T14:31:43.875Z,27.10
2018-06-25T14:34:20.148Z,27.20
2018-06-25T14:36:49.719Z,27.20
2018-06-25T14:39:19.338Z,27.30
2018-06-25T14:41:48.754Z,27.30
2018-06-25T14:44:18.310Z,27.40
2018-06-25T14:46:47.835Z,27.40
2018-06-25T14:49:17.490Z,27.40
2018-06-25T14:51:46.850Z,27.40
2018-06-25T14:54:16.301Z,27.30
2018-06-25T14:56:45.719Z,27.40
2018-06-25T14:59:15.376Z,27.50
2018-06-25T15:01:45.441Z,27.50
2018-06-25T15:06:44.123Z,27.50
2018-06-25T15:09:13.790Z,27.50
2018-06-25T15:11:43.343Z,27.50
2018-06-25T15:16:45.570Z,27.30
2018-06-25T15:19:15.037Z,27.30
2018-06-25T15:21:44.547Z,27.10
2018-06-25T15:24:13.959Z,27.00
2018-06-25T15:26:43.345Z,27.00
2018-06-25T15:29:12.818Z,27.00
2018-06-25T15:31:42.281Z,26.80
2018-06-25T15:34:11.670Z,26.70
2018-06-25T15:36:47.484Z,26.70
2018-06-25T15:39:17.330Z,26.70
2018-06-25T15:41:46.686Z,26.70
2018-06-25T15:44:16.355Z,26.70
2018-06-25T15:46:45.935Z,26.60
2018-06-25T15:49:15.499Z,26.60
2018-06-25T15:51:45.116Z,26.50
2018-06-25T15:54:14.563Z,26.50
2018-06-25T15:56:43.903Z,26.50
2018-06-25T15:59:13.479Z,26.50
2018-06-25T16:05:46.089Z,26.30
2018-06-25T16:08:15.526Z,26.40
2018-06-25T16:10:44.987Z,26.30
2018-06-25T16:13:14.487Z,26.20
2018-06-25T16:15:44.217Z,26.20
2018-06-25T16:18:13.613Z,26.10
2018-06-25T16:20:43.121Z,26.10
2018-06-25T16:23:12.630Z,26.10
2018-06-25T16:25:42.094Z,26.10
2018-06-25T16:28:11.543Z,26.00
2018-06-25T16:30:41.095Z,26.00
2018-06-25T16:33:11.533Z,25.90
2018-06-25T16:35:40.934Z,25.90
2018-06-25T16:38:10.562Z,25.90
2018-06-25T16:40:40.149Z,25.80
2018-06-25T16:43:10.010Z,25.80
2018-06-25T16:45:39.518Z,25.80
2018-06-25T16:48:09.135Z,25.70
2018-06-25T16:50:38.793Z,25.60
2018-06-25T16:53:09.399Z,25.60
2018-06-25T16:55:38.831Z,25.60
2018-06-25T16:58:08.375Z,25.60
2018-06-25T17:01:39.445Z,25.60
2018-06-25T17:04:08.990Z,25.60
2018-06-25T17:06:38.479Z,25.50
2018-06-25T17:09:11.220Z,25.50
2018-06-25T17:11:41.611Z,25.50
2018-06-25T17:14:11.066Z,25.40
2018-06-25T17:16:40.705Z,25.40
2018-06-25T17:19:10.624Z,25.40
2018-06-25T17:21:40.100Z,25.40
2018-06-25T17:24:10.818Z,25.30
2018-06-25T17:26:40.211Z,25.30
2018-06-25T17:29:09.656Z,25.30
2018-06-25T17:31:39.196Z,25.30
2018-06-25T17:34:08.605Z,25.30
2018-06-25T17:36:38.197Z,25.30
2018-06-25T17:39:08.478Z,25.30
2018-06-25T17:41:37.916Z,25.40
2018-06-25T17:44:07.652Z,25.40
2018-06-25T17:46:37.009Z,25.30
2018-06-25T17:49:06.650Z,25.30
2018-06-25T17:51:36.153Z,25.30
2018-06-25T17:54:05.863Z,25.20
2018-06-25T17:56:35.369Z,25.20
2018-06-25T17:59:04.848Z,25.20
2018-06-25T18:01:34.504Z,25.20
2018-06-25T18:04:04.146Z,25.10
2018-06-25T18:06:33.672Z,25.10
2018-06-25T18:09:06.382Z,25.10
2018-06-25T18:11:35.887Z,25.00
2018-06-25T18:14:05.509Z,25.00
2018-06-25T18:16:34.979Z,24.90
2018-06-25T18:19:05.481Z,24.80
2018-06-25T18:21:35.139Z,24.80
2018-06-25T18:24:04.549Z,24.80
2018-06-25T18:26:34.001Z,24.80
2018-06-25T18:29:03.669Z,24.80
2018-06-25T18:42:40.985Z,24.80
2018-06-25T18:45:10.502Z,24.70
2018-06-25T18:47:39.990Z,24.50
2018-06-25T18:50:09.435Z,24.40
2018-06-25T18:55:07.927Z,24.30
2018-06-25T18:57:37.359Z,24.30
2018-06-25T19:00:08.220Z,24.30
2018-06-25T19:05:11.862Z,24.20
2018-06-25T19:07:41.489Z,24.20
2018-06-25T19:10:10.916Z,24.20
2018-06-25T19:12:40.495Z,24.10
2018-06-25T19:15:10.050Z,24.10
2018-06-25T19:17:39.775Z,24.00
2018-06-25T19:20:09.179Z,24.00
2018-06-25T19:22:38.823Z,24.00
2018-06-25T19:25:08.273Z,23.90
2018-06-25T19:27:37.793Z,23.70
2018-06-25T19:30:07.287Z,23.60
2018-06-25T19:32:36.899Z,23.60
2018-06-25T19:35:06.470Z,23.50
2018-06-25T19:37:52.739Z,23.50
2018-06-25T19:40:22.976Z,23.50
2018-06-25T19:42:52.394Z,23.40
2018-06-25T19:45:22.908Z,23.20
2018-06-25T19:47:52.348Z,23.10
2018-06-25T19:52:51.838Z,22.90
2018-06-25T19:55:21.501Z,22.80
2018-06-25T19:57:51.531Z,22.60
2018-06-25T20:00:21.120Z,22.40
2018-06-25T20:02:50.789Z,22.30
2018-06-25T20:05:20.547Z,22.20
2018-06-25T20:07:50.148Z,22.00
2018-06-25T20:10:19.793Z,22.10
2018-06-25T20:12:49.299Z,22.00
2018-06-25T20:15:18.970Z,22.00
2018-06-25T20:17:48.382Z,21.90
2018-06-25T20:20:17.795Z,21.90
2018-06-25T20:22:47.423Z,22.00
2018-06-25T20:25:17.463Z,22.00
2018-06-25T20:27:47.272Z,21.90
2018-06-25T20:30:16.695Z,21.80
2018-06-25T20:32:46.280Z,21.80
2018-06-25T20:35:15.813Z,21.60
2018-06-25T20:37:45.278Z,21.40
2018-06-25T20:40:14.926Z,21.30
2018-06-25T20:42:44.575Z,21.20
2018-06-25T20:45:14.139Z,21.20
2018-06-25T20:47:43.516Z,21.20
2018-06-25T20:50:13.009Z,21.20
2018-06-25T20:52:42.501Z,21.20
2018-06-25T20:55:11.948Z,21.30
2018-06-25T20:57:42.636Z,21.30
2018-06-25T21:02:41.343Z,21.20
2018-06-25T21:05:11.964Z,21.10
2018-06-25T21:07:41.528Z,21.10
2018-06-25T21:10:11.210Z,21.20
2018-06-25T21:12:48.701Z,21.20
2018-06-25T21:15:18.283Z,21.10
2018-06-25T21:17:47.914Z,21.00
2018-06-25T21:20:17.438Z,21.10
2018-06-25T21:22:46.835Z,21.10
2018-06-25T21:25:17.688Z,21.10
2018-06-25T21:27:47.255Z,21.00
2018-06-25T21:32:46.770Z,21.10
2018-06-25T21:35:16.948Z,21.00
2018-06-25T21:37:46.561Z,20.90
2018-06-25T21:40:16.247Z,20.80
2018-06-25T21:42:45.733Z,20.90
2018-06-25T21:45:15.234Z,20.90
2018-06-25T21:47:44.696Z,20.90
2018-06-25T21:50:14.208Z,20.80
2018-06-25T21:52:43.611Z,20.80
2018-06-25T21:55:12.987Z,20.80
2018-06-25T21:57:42.487Z,20.90
2018-06-25T22:00:13.835Z,20.90
2018-06-25T22:02:43.598Z,21.00
2018-06-25T22:05:13.079Z,21.00
2018-06-25T22:07:42.522Z,21.00
2018-06-25T22:10:12.624Z,21.00
2018-06-25T22:12:42.223Z,21.10
2018-06-25T22:15:11.752Z,21.00
2018-06-25T22:17:41.140Z,21.00
2018-06-25T22:20:10.590Z,21.00
2018-06-25T22:22:40.020Z,21.00
2018-06-25T22:25:09.419Z,20.90
2018-06-25T22:27:38.890Z,20.90
2018-06-25T22:30:08.867Z,20.90
2018-06-25T22:32:38.448Z,20.90
2018-06-25T22:35:08.023Z,20.90
2018-06-25T22:40:07.635Z,20.80
2018-06-25T22:42:38.704Z,20.70
2018-06-25T22:45:08.259Z,20.60
2018-06-25T22:47:37.707Z,20.50
2018-06-25T22:50:07.211Z,20.40
2018-06-25T22:52:36.631Z,20.20
2018-06-25T22:55:06.559Z,20.20
2018-06-25T22:57:36.115Z,20.10
2018-06-25T23:00:05.761Z,20.00
2018-06-25T23:02:36.271Z,19.90
2018-06-25T23:05:10.307Z,19.80
2018-06-25T23:07:39.763Z,19.70
2018-06-25T23:10:09.263Z,19.50
2018-06-25T23:12:39.051Z,19.40
2018-06-25T23:15:08.568Z,19.30
2018-06-25T23:17:38.149Z,19.10
2018-06-25T23:20:07.749Z,19.00
2018-06-25T23:22:37.164Z,18.90
2018-06-25T23:25:06.543Z,18.80
2018-06-25T23:27:35.953Z,18.70
2018-06-25T23:30:05.847Z,18.60
2018-06-25T23:32:35.439Z,18.40
2018-06-25T23:35:05.253Z,18.40
2018-06-25T23:37:34.773Z,18.30
2018-06-25T23:40:04.257Z,18.20
2018-06-25T23:42:33.787Z,18.20
2018-06-25T23:45:03.295Z,18.10
2018-06-25T23:47:32.735Z,18.00
2018-06-25T23:50:02.315Z,17.90
2018-06-25T23:52:31.737Z,17.70
2018-06-25T23:55:01.218Z,17.60
2018-06-25T23:57:30.620Z,17.50
